createdAt,value
2019-02-09T00:00:54.927Z,58.30
2019-02-09T00:03:23.133Z,58.60
2019-02-09T00:05:51.122Z,57.50
2019-02-09T00:08:19.484Z,56.70
2019-02-09T00:10:47.730Z,56.90
2019-02-09T00:13:15.696Z,55.90
2019-02-09T00:15:43.776Z,55.50
2019-02-09T00:18:11.792Z,55.60
2019-02-09T00:20:39.808Z,55.90
2019-02-09T00:23:08.017Z,54.90
2019-02-09T00:25:36.046Z,54.70
2019-02-09T00:28:04.030Z,55.00
2019-02-09T00:30:32.119Z,54.90
2019-02-09T00:33:00.069Z,54.50
2019-02-09T00:35:30.583Z,55.00
2019-02-09T00:37:58.931Z,54.80
2019-02-09T00:40:27.708Z,55.00
2019-02-09T00:42:55.889Z,56.00
2019-02-09T00:45:23.880Z,55.40
2019-02-09T00:47:51.875Z,55.20
2019-02-09T00:50:19.891Z,55.70
2019-02-09T00:52:47.859Z,54.90
2019-02-09T00:55:16.129Z,54.90
2019-02-09T00:57:44.380Z,54.50
2019-02-09T01:00:19.138Z,56.20
2019-02-09T01:02:47.199Z,56.10
2019-02-09T01:05:16.621Z,55.30
2019-02-09T01:07:44.684Z,54.90
2019-02-09T01:10:13.652Z,54.40
2019-02-09T01:12:41.836Z,55.00
2019-02-09T01:15:13.167Z,56.00
2019-02-09T01:17:41.149Z,55.30
2019-02-09T01:20:15.618Z,54.70
2019-02-09T01:22:43.603Z,54.60
2019-02-09T01:25:11.720Z,54.70
2019-02-09T01:27:39.824Z,54.90
2019-02-09T01:30:11.817Z,55.20
2019-02-09T01:32:39.822Z,56.00
2019-02-09T01:35:08.314Z,55.20
2019-02-09T01:37:36.481Z,54.90
2019-02-09T01:40:06.906Z,54.10
2019-02-09T01:42:35.079Z,53.90
2019-02-09T01:45:03.189Z,53.10
2019-02-09T01:47:31.332Z,52.90
2019-02-09T01:49:59.366Z,51.50
2019-02-09T01:52:27.348Z,51.50
2019-02-09T01:54:55.378Z,51.10
2019-02-09T01:57:23.822Z,50.10
2019-02-09T01:59:51.869Z,49.90
2019-02-09T02:02:19.936Z,48.80
2019-02-09T02:04:47.983Z,50.10
2019-02-09T02:07:15.948Z,48.40
2019-02-09T02:09:44.153Z,48.10
2019-02-09T02:12:13.223Z,48.10
2019-02-09T02:14:41.199Z,47.80
2019-02-09T02:17:09.123Z,47.60
2019-02-09T02:19:37.510Z,47.60
2019-02-09T02:22:05.514Z,47.40
2019-02-09T02:24:33.515Z,47.30
2019-02-09T02:27:02.005Z,47.10
2019-02-09T02:29:32.687Z,47.60
2019-02-09T02:32:00.740Z,46.90
2019-02-09T02:34:29.017Z,46.40
2019-02-09T02:36:57.252Z,46.50
2019-02-09T02:39:25.516Z,45.80
2019-02-09T02:41:53.537Z,45.70
2019-02-09T02:44:21.574Z,45.40
2019-02-09T02:46:49.522Z,45.20
2019-02-09T02:49:17.548Z,44.90
2019-02-09T02:51:45.528Z,44.60
2019-02-09T02:54:13.522Z,43.90
2019-02-09T02:56:41.519Z,43.70
2019-02-09T02:59:09.651Z,43.10
2019-02-09T03:01:38.582Z,43.30
2019-02-09T03:04:06.642Z,42.80
2019-02-09T03:06:34.850Z,43.00
2019-02-09T03:09:05.263Z,43.10
2019-02-09T03:11:35.183Z,42.40
2019-02-09T03:14:03.189Z,42.50
2019-02-09T03:16:31.135Z,42.40
2019-02-09T03:18:59.441Z,42.20
2019-02-09T03:21:27.707Z,42.10
2019-02-09T03:23:55.764Z,41.40
2019-02-09T03:26:23.733Z,40.50
2019-02-09T03:28:51.878Z,40.40
2019-02-09T03:31:20.148Z,39.60
2019-02-09T03:33:48.452Z,39.30
2019-02-09T03:36:16.442Z,39.50
2019-02-09T03:38:44.544Z,39.70
2019-02-09T03:41:12.608Z,40.60
2019-02-09T03:43:40.961Z,41.30
2019-02-09T03:46:09.382Z,42.70
2019-02-09T03:48:38.902Z,43.60
2019-02-09T03:51:06.879Z,44.90
2019-02-09T03:53:35.053Z,45.30
2019-02-09T03:56:03.366Z,46.70
2019-02-09T03:58:31.443Z,48.10
2019-02-09T04:00:59.508Z,48.70
2019-02-09T04:03:27.602Z,48.90
2019-02-09T04:05:56.286Z,49.20
2019-02-09T04:08:26.466Z,50.20
2019-02-09T04:10:54.437Z,50.50
2019-02-09T04:13:22.441Z,51.80
2019-02-09T04:15:50.612Z,53.00
2019-02-09T04:18:18.598Z,56.00
2019-02-09T04:20:46.665Z,56.50
2019-02-09T04:23:15.170Z,58.30
2019-02-09T04:25:43.172Z,59.40
2019-02-09T04:28:12.302Z,59.90
2019-02-09T04:30:40.560Z,60.60
2019-02-09T04:33:08.609Z,60.60
2019-02-09T04:35:36.846Z,61.30
2019-02-09T04:38:05.705Z,61.40
2019-02-09T04:40:33.872Z,62.20
2019-02-09T04:43:02.070Z,64.00
2019-02-09T04:45:30.244Z,64.70
2019-02-09T04:47:58.396Z,64.70
2019-02-09T04:50:26.649Z,65.80
2019-02-09T04:52:54.922Z,66.00
2019-02-09T04:55:26.280Z,66.30
2019-02-09T04:57:54.456Z,66.00
2019-02-09T05:00:27.807Z,66.10
2019-02-09T05:02:55.812Z,66.10
2019-02-09T05:05:24.134Z,66.40
2019-02-09T05:07:52.163Z,66.60
2019-02-09T05:10:20.819Z,66.70
2019-02-09T05:12:48.875Z,66.80
2019-02-09T05:15:17.154Z,66.70
2019-02-09T05:17:45.136Z,66.50
2019-02-09T05:20:15.621Z,66.60
2019-02-09T05:22:43.902Z,66.50
2019-02-09T05:25:11.969Z,66.60
2019-02-09T05:27:39.972Z,66.80
2019-02-09T05:30:15.012Z,66.60
2019-02-09T05:32:43.021Z,66.80
2019-02-09T05:35:12.308Z,66.70
2019-02-09T05:37:41.482Z,66.90
2019-02-09T05:40:11.927Z,66.80
2019-02-09T05:42:39.942Z,67.20
2019-02-09T05:45:11.611Z,67.70
2019-02-09T05:47:39.813Z,67.50
2019-02-09T05:50:10.214Z,67.40
2019-02-09T05:52:38.254Z,67.50
2019-02-09T05:55:06.689Z,67.60
2019-02-09T05:57:34.934Z,67.40
2019-02-09T06:00:03.970Z,67.80
2019-02-09T06:02:31.942Z,68.30
2019-02-09T06:05:00.211Z,68.30
2019-02-09T06:07:28.297Z,68.40
2019-02-09T06:09:56.531Z,68.40
2019-02-09T06:12:24.659Z,68.30
2019-02-09T06:14:52.730Z,68.30
2019-02-09T06:17:21.160Z,68.70
2019-02-09T06:19:49.266Z,68.30
2019-02-09T06:22:17.430Z,68.30
2019-02-09T06:24:45.884Z,68.40
2019-02-09T06:27:14.060Z,68.30
2019-02-09T06:29:42.402Z,68.40
2019-02-09T06:32:10.548Z,68.40
2019-02-09T06:34:38.500Z,68.30
2019-02-09T06:37:06.572Z,68.40
2019-02-09T06:39:34.562Z,68.00
2019-02-09T06:42:03.104Z,68.40
2019-02-09T06:44:31.419Z,67.80
2019-02-09T06:46:59.376Z,67.70
2019-02-09T06:49:27.407Z,67.60
2019-02-09T06:51:55.874Z,67.30
2019-02-09T06:54:23.964Z,67.20
2019-02-09T06:56:51.964Z,67.10
2019-02-09T06:59:23.177Z,66.90
2019-02-09T07:01:51.307Z,66.80
2019-02-09T07:04:19.304Z,66.80
2019-02-09T07:06:47.238Z,66.90
2019-02-09T07:12:03.680Z,65.00
2019-02-09T07:14:43.712Z,64.40
2019-02-09T07:17:24.026Z,63.90
2019-02-09T07:23:11.025Z,63.90
2019-02-09T07:25:51.819Z,62.70
2019-02-09T07:31:46.222Z,62.70
2019-02-09T07:37:14.639Z,61.80
2019-02-09T07:39:55.552Z,61.70
2019-02-09T07:48:22.074Z,61.30
2019-02-09T07:51:02.565Z,60.70
2019-02-09T07:53:50.140Z,62.90
2019-02-09T07:56:31.266Z,62.20
2019-02-09T07:59:18.867Z,62.00
2019-02-09T08:02:04.378Z,61.90
2019-02-09T08:04:48.987Z,61.80
2019-02-09T08:07:29.716Z,61.60
2019-02-09T08:10:37.884Z,61.40
2019-02-09T08:13:22.497Z,61.00
2019-02-09T08:16:10.226Z,60.60
2019-02-09T08:18:52.589Z,62.70
2019-02-09T08:21:40.123Z,61.50
2019-02-09T08:24:20.905Z,59.90
2019-02-09T08:27:29.026Z,59.50
2019-02-09T08:30:39.220Z,60.10
2019-02-09T08:33:26.710Z,59.90
2019-02-09T08:36:09.531Z,59.40
2019-02-09T08:38:58.123Z,59.70
2019-02-09T08:41:48.771Z,58.50
2019-02-09T08:44:38.674Z,58.70
2019-02-09T08:47:17.358Z,57.70
2019-02-09T08:50:20.118Z,57.00
2019-02-09T08:53:07.904Z,57.40
2019-02-09T08:55:50.827Z,56.20
2019-02-09T09:01:30.070Z,54.60
2019-02-09T09:04:10.368Z,52.70
2019-02-09T09:06:51.934Z,53.10
2019-02-09T09:18:09.034Z,51.60
2019-02-09T09:21:00.520Z,51.10
2019-02-09T09:23:40.750Z,51.60
2019-02-09T09:32:39.061Z,52.00
2019-02-09T09:35:26.765Z,51.60
2019-02-09T09:38:07.172Z,51.40
2019-02-09T09:40:48.138Z,51.50
2019-02-09T09:43:29.360Z,51.30
2019-02-09T09:46:09.789Z,49.40
2019-02-09T09:48:57.222Z,49.00
2019-02-09T09:51:38.159Z,49.00
2019-02-09T09:57:34.709Z,48.90
2019-02-09T10:03:15.984Z,50.60
2019-02-09T10:05:57.059Z,52.40
2019-02-09T10:08:37.171Z,53.60
2019-02-09T10:11:24.658Z,54.30
2019-02-09T10:14:08.848Z,55.10
2019-02-09T10:25:16.562Z,57.20
2019-02-09T10:28:11.453Z,56.10
2019-02-09T10:30:55.530Z,55.30
2019-02-09T10:36:43.684Z,53.40
2019-02-09T10:39:31.295Z,53.60
2019-02-09T10:42:12.136Z,49.10
2019-02-09T10:48:47.561Z,47.60
2019-02-09T10:51:28.639Z,49.80
2019-02-09T10:54:09.407Z,47.70
2019-02-09T10:57:03.470Z,48.30
2019-02-09T11:00:06.205Z,49.80
2019-02-09T11:05:43.491Z,47.70
2019-02-09T11:08:30.942Z,48.70
2019-02-09T11:11:12.143Z,48.40
2019-02-09T11:13:59.625Z,49.10
2019-02-09T11:16:40.832Z,47.70
2019-02-09T11:19:28.354Z,48.50
2019-02-09T11:22:08.505Z,46.20
2019-02-09T11:28:24.637Z,46.30
2019-02-09T11:31:05.343Z,44.80
2019-02-09T11:33:45.862Z,46.10
2019-02-09T11:42:14.281Z,44.70
2019-02-09T11:45:04.972Z,44.10
2019-02-09T11:47:45.516Z,44.10
2019-02-09T11:50:48.144Z,45.20
2019-02-09T11:56:58.155Z,44.30
2019-02-09T11:59:45.625Z,44.80
2019-02-09T12:02:26.289Z,45.20
2019-02-09T12:05:13.916Z,44.20
2019-02-09T12:07:54.420Z,45.40
2019-02-09T12:14:08.604Z,45.60
2019-02-09T12:16:49.736Z,45.60
2019-02-09T12:19:30.484Z,45.70
2019-02-09T12:22:18.245Z,45.40
2019-02-09T12:24:59.165Z,46.80
2019-02-09T12:27:46.721Z,44.80
2019-02-09T12:30:28.344Z,44.30
2019-02-09T12:36:04.809Z,44.70
2019-02-09T12:38:52.437Z,45.40
2019-02-09T12:41:33.132Z,45.60
2019-02-09T12:44:20.943Z,45.90
2019-02-09T12:47:01.155Z,45.60
2019-02-09T12:49:48.600Z,45.00
2019-02-09T12:52:29.254Z,44.40
2019-02-09T12:58:37.750Z,43.90
2019-02-09T13:01:19.518Z,43.40
2019-02-09T13:03:59.919Z,43.00
2019-02-09T13:15:29.172Z,43.80
2019-02-09T13:18:16.752Z,43.60
2019-02-09T13:20:57.431Z,44.00
2019-02-09T13:23:44.827Z,45.60
2019-02-09T13:26:24.889Z,44.40
2019-02-09T13:31:53.698Z,45.40
2019-02-09T13:34:41.328Z,44.40
2019-02-09T13:40:02.449Z,44.60
2019-02-09T13:42:43.470Z,45.30
2019-02-09T13:48:04.666Z,43.70
2019-02-09T13:50:52.482Z,43.70
2019-02-09T13:53:32.721Z,43.00
2019-02-09T13:59:00.863Z,42.90
2019-02-09T14:01:48.611Z,43.40
2019-02-09T14:04:28.966Z,43.50
2019-02-09T14:09:57.291Z,44.30
2019-02-09T14:15:26.724Z,44.30
2019-02-09T14:18:14.281Z,43.80
2019-02-09T14:20:54.840Z,43.90
2019-02-09T14:23:42.279Z,44.60
2019-02-09T14:26:23.173Z,45.10
2019-02-09T14:29:10.998Z,46.10
2019-02-09T14:31:51.316Z,47.10
2019-02-09T14:34:40.826Z,47.40
2019-02-09T14:37:21.512Z,47.70
2019-02-09T14:43:40.767Z,47.00
2019-02-09T14:46:21.420Z,47.80
2019-02-09T14:49:09.469Z,47.00
2019-02-09T14:51:50.437Z,47.10
2019-02-09T14:57:51.176Z,48.30
2019-02-09T15:00:38.841Z,47.60
2019-02-09T15:06:27.283Z,47.50
2019-02-09T15:09:07.742Z,47.20
2019-02-09T15:11:55.197Z,46.20
2019-02-09T15:14:35.668Z,46.40
2019-02-09T15:20:46.063Z,45.90
2019-02-09T15:26:06.783Z,46.00
2019-02-09T15:31:34.990Z,46.50
2019-02-09T15:34:22.443Z,46.60
2019-02-09T15:37:01.859Z,47.00
2019-02-09T15:39:50.725Z,47.00
2019-02-09T15:42:30.826Z,47.30
2019-02-09T15:45:19.844Z,47.90
2019-02-09T15:48:00.097Z,49.40
2019-02-09T15:56:08.499Z,47.90
2019-02-09T16:01:37.629Z,49.30
2019-02-09T16:07:03.856Z,49.30
2019-02-09T16:15:50.713Z,49.30
2019-02-09T16:18:38.220Z,49.50
2019-02-09T16:21:20.853Z,49.70
2019-02-09T16:26:42.060Z,50.30
2019-02-09T16:32:09.823Z,50.30
2019-02-09T16:37:37.938Z,51.50
2019-02-09T16:43:54.671Z,50.30
2019-02-09T16:46:42.244Z,50.20
2019-02-09T16:49:24.033Z,50.30
2019-02-09T16:55:38.359Z,50.30
2019-02-09T16:58:19.431Z,50.20
2019-02-09T17:00:59.491Z,50.10
2019-02-09T17:03:47.220Z,50.30
2019-02-09T17:06:27.707Z,50.90
2019-02-09T17:09:15.175Z,50.30
2019-02-09T17:11:55.736Z,49.70
2019-02-09T17:14:43.176Z,49.90
2019-02-09T17:17:23.936Z,49.10
2019-02-09T17:20:11.499Z,50.10
2019-02-09T17:22:52.083Z,49.10
2019-02-09T17:28:20.492Z,49.00
2019-02-09T17:31:08.131Z,49.00
2019-02-09T17:33:48.438Z,49.00
2019-02-09T17:36:35.969Z,48.70
2019-02-09T17:39:17.080Z,48.60
2019-02-09T17:42:04.507Z,48.90
2019-02-09T17:44:45.067Z,48.40
2019-02-09T17:47:32.500Z,49.40
2019-02-09T17:50:12.964Z,48.10
2019-02-09T17:59:04.771Z,46.90
2019-02-09T18:01:45.534Z,46.90
2019-02-09T18:04:32.960Z,48.00
2019-02-09T18:07:13.933Z,46.50
2019-02-09T18:10:01.360Z,46.00
2019-02-09T18:12:42.559Z,46.20
2019-02-09T18:15:30.007Z,45.90
2019-02-09T18:18:10.907Z,46.10
2019-02-09T18:20:58.408Z,47.60
2019-02-09T18:23:39.576Z,46.30
2019-02-09T18:29:26.924Z,47.10
2019-02-09T18:32:07.797Z,45.50
2019-02-09T18:34:56.232Z,47.30
2019-02-09T18:37:57.206Z,46.10
2019-02-09T18:40:44.645Z,47.70
2019-02-09T18:43:25.460Z,46.20
2019-02-09T18:46:13.029Z,46.30
2019-02-09T18:48:53.769Z,46.50
2019-02-09T18:51:41.222Z,47.50
2019-02-09T18:54:21.891Z,47.60
2019-02-09T19:03:09.366Z,47.30
2019-02-09T19:05:49.715Z,47.30
2019-02-09T19:08:30.065Z,47.50
2019-02-09T19:11:17.539Z,47.70
2019-02-09T19:13:58.199Z,48.00
2019-02-09T19:16:45.719Z,48.20
2019-02-09T19:19:26.662Z,48.30
2019-02-09T19:22:20.252Z,48.60
2019-02-09T19:25:03.104Z,48.40
2019-02-09T19:27:50.655Z,48.40
2019-02-09T19:30:31.273Z,48.30
2019-02-09T19:35:59.767Z,48.30
2019-02-09T19:38:47.593Z,48.30
2019-02-09T19:41:28.136Z,48.30
2019-02-09T20:04:12.822Z,50.80
2019-02-09T20:06:53.586Z,50.70
2019-02-09T20:12:19.238Z,50.80
2019-02-09T20:15:00.387Z,50.90
2019-02-09T20:25:49.501Z,51.20
2019-02-09T20:34:03.201Z,52.50
2019-02-09T20:47:28.897Z,53.20
2019-02-09T20:50:10.217Z,53.50
2019-02-09T20:52:57.777Z,53.60
2019-02-09T20:58:23.440Z,54.10
2019-02-09T21:01:04.455Z,55.80
2019-02-09T21:03:43.538Z,55.00
2019-02-09T21:06:31.177Z,55.50
2019-02-09T21:11:52.108Z,55.90
2019-02-09T21:14:39.608Z,56.00
2019-02-09T21:17:20.939Z,56.20
2019-02-09T21:20:09.329Z,56.70
2019-02-09T21:22:49.511Z,57.20
2019-02-09T21:26:18.656Z,57.20
2019-02-09T21:28:58.875Z,57.10
2019-02-09T21:31:39.165Z,56.80
2019-02-09T21:34:26.615Z,57.20
2019-02-09T21:37:07.528Z,56.80
2019-02-09T21:39:54.958Z,57.60
2019-02-09T21:42:35.502Z,57.20
2019-02-09T21:45:15.975Z,57.90
2019-02-09T21:51:32.471Z,57.30
2019-02-09T21:54:20.031Z,57.20
2019-02-09T21:57:02.162Z,57.60
2019-02-09T21:59:51.138Z,57.30
2019-02-09T22:02:42.791Z,59.30
2019-02-09T22:05:09.583Z,59.60
2019-02-09T22:07:37.638Z,60.50
2019-02-09T22:10:07.883Z,58.00
2019-02-09T22:12:37.029Z,58.00
2019-02-09T22:15:06.624Z,58.00
2019-02-09T22:17:35.002Z,58.00
2019-02-09T22:20:04.706Z,57.80
2019-02-09T22:22:32.852Z,57.90
2019-02-09T22:25:01.245Z,57.90
2019-02-09T22:27:29.356Z,57.90
2019-02-09T22:29:57.719Z,57.90
2019-02-09T22:32:26.050Z,58.00
2019-02-09T22:34:54.031Z,58.00
2019-02-09T22:37:22.318Z,58.00
2019-02-09T22:39:50.467Z,57.90
2019-02-09T22:42:18.507Z,58.00
2019-02-09T22:44:46.514Z,57.90
2019-02-09T22:47:14.872Z,58.40
2019-02-09T22:49:43.081Z,57.90
2019-02-09T22:52:11.068Z,57.80
2019-02-09T22:54:39.188Z,58.60
2019-02-09T22:57:07.237Z,58.60
2019-02-09T22:59:35.278Z,58.40
2019-02-09T23:02:03.609Z,58.60
2019-02-09T23:05:24.965Z,58.40
2019-02-09T23:07:53.269Z,58.50
2019-02-09T23:10:21.420Z,58.60
2019-02-09T23:12:49.453Z,58.40
2019-02-09T23:15:17.546Z,58.60
2019-02-09T23:17:46.629Z,58.60
2019-02-09T23:20:14.589Z,58.50
2019-02-09T23:22:42.725Z,58.50
2019-02-09T23:25:10.766Z,58.80
2019-02-09T23:27:39.143Z,58.80
2019-02-09T23:30:10.525Z,59.10
2019-02-09T23:32:39.044Z,59.30
2019-02-09T23:35:07.217Z,59.20
2019-02-09T23:37:35.494Z,59.60
2019-02-09T23:40:03.846Z,60.50
2019-02-09T23:42:31.936Z,60.10
2019-02-09T23:44:59.935Z,60.40
2019-02-09T23:47:28.200Z,60.90
2019-02-09T23:49:56.196Z,61.30
2019-02-09T23:52:24.496Z,61.50
2019-02-09T23:54:52.438Z,61.80
2019-02-09T23:57:20.480Z,62.50
2019-02-09T23:59:48.771Z,62.80
